Ballantine, Montana
Current Conditions -  °F | °C
As of 8:53 AM on Tuesday 21 Oct 2014 (Local Time) from KBIL Reporting Station
Few Clouds Few Clouds  
Wind Chill: 54°   Ceiling: Unl
Heat Index: 54°   Visibility: 10mi
Dew Point: 29°   Wind: 15mph
Humidity: 38%   Direction: 240°WSW
Pressure: 29.73"   Gusts: NA
Location:  45.95°N, 108.15°W
Report Text: KBIL 211453Z 24013KT 10SM FEW090 FEW160 12/M02 A2973 RMK AO2 SLP049 T01221017 55006
Loading
Personal Weather Stations






























Interactive Weather Map
Tropical Storm Tracking
New forecast layout! Learn more

10-Day Weather Forecast

Advertisements
Track Severe Weather on mobile